Terminal Aerodrome Forecast
Issued by NWS Cleveland, OH

Home | Current Version | Previous Version | Text Only | Print | Product List | Glossary On
Versions: 1 2 3 4 5 6 7 8 9 10 11 12 13 14 15 16 17 18 19 20 21
000
FTUS41 KCLE 290816 AAB
TAFCAK
TAF AMD
KCAK 290816Z 2908/3006 04005KT 4SM -DZRA BR OVC007
      TEMPO 2909/2912 2SM BR OVC003
     FM291200 03005KT 4SM BR OVC006
     FM291600 01005KT P6SM OVC007
     FM291800 34007KT P6SM OVC015=

USA.gov is the U.S. government's official web portal to all federal, state and local government web resources and services.